Time;durP1;ratioP1;P1;durP2;ratioP2;P2;SDS_P1;SDS_P2;PMS_P1;PMS_P2;Temp;Humidity;BMP_temperature;BMP_pressure;BME280_temperature;BME280_humidity;BME280_pressure;Samples;Min_cycle;Max_cycle;Signal;HPM_P1;HPM_P2
2022/06/26 17:19:50;;;;;;;;;;;28.10;45.40;;;;;;5112556;27;1272;-40
2022/06/26 17:22:16;;;;;;;;;;;28.10;45.70;;;;;;5113283;28;936;-39
2022/06/26 17:24:44;;;;;;;;;;;28.20;45.70;;;;;;5112670;28;1153;-39
2022/06/26 17:27:11;;;;;;;;;;;28.50;45.00;;;;;;5112558;28;988;-40
2022/06/26 17:29:37;;;;;;;;;;;28.60;44.20;;;;;;5111844;28;1163;-40
2022/06/26 17:32:05;;;;;;;;;;;28.70;42.60;;;;;;5110816;28;956;-40
2022/06/26 17:34:31;;;;;;;;;;;28.80;42.00;;;;;;5111207;28;996;-40
2022/06/26 17:36:59;;;;;;;;;;;28.90;42.60;;;;;;5112682;28;972;-40
2022/06/26 17:39:26;;;;;;;;;;;29.00;41.80;;;;;;5109656;28;1918;-40
2022/06/26 17:41:53;;;;;;;;;;;29.00;40.40;;;;;;5110845;28;1018;-40
2022/06/26 17:44:20;;;;;;;;;;;29.00;40.00;;;;;;5111355;28;993;-40
2022/06/26 17:46:47;;;;;;;;;;;29.10;40.40;;;;;;5103126;28;936;-40
2022/06/26 17:49:14;;;;;;;;;;;29.20;40.20;;;;;;5086343;28;983;-40
2022/06/26 17:51:40;;;;;;;;;;;29.20;40.00;;;;;;5086345;28;889;-40
2022/06/26 17:54:08;;;;;;;;;;;29.20;40.00;;;;;;5086527;28;1127;-40
2022/06/26 17:56:35;;;;;;;;;;;29.20;40.20;;;;;;5085902;28;940;-40
2022/06/26 17:59:02;;;;;;;;;;;29.20;39.60;;;;;;5099227;28;1984;-40
2022/06/26 18:01:28;;;;;;;;;;;29.20;40.80;;;;;;5110708;28;931;-40
2022/06/26 18:03:55;;;;;;;;;;;29.20;40.20;;;;;;5111229;28;968;-40
2022/06/26 18:06:22;;;;;;;;;;;29.30;41.30;;;;;;5111054;28;971;-40
2022/06/26 18:08:49;;;;;;;;;;;29.30;40.20;;;;;;5110969;28;1004;-40
2022/06/26 18:11:17;;;;;;;;;;;29.30;40.10;;;;;;5110260;28;953;-41
2022/06/26 18:13:43;;;;;;;;;;;29.30;39.70;;;;;;5110257;28;994;-41
2022/06/26 18:16:11;;;;;;;;;;;29.30;39.90;;;;;;5110699;28;955;-40
2022/06/26 18:18:38;;;;;;;;;;;29.40;40.00;;;;;;5109610;28;1913;-40
2022/06/26 18:21:05;;;;;;;;;;;29.40;39.30;;;;;;5110327;28;971;-41
2022/06/26 18:23:31;;;;;;;;;;;29.30;39.30;;;;;;5112225;28;1015;-41
2022/06/26 18:25:59;;;;;;;;;;;29.40;39.10;;;;;;5112247;28;956;-41
2022/06/26 18:28:28;;;;;;;;;;;29.30;38.60;;;;;;5112902;28;1042;-40
2022/06/26 18:30:55;;;;;;;;;;;29.40;38.60;;;;;;5100192;28;1028;-40
2022/06/26 18:33:22;;;;;;;;;;;29.40;38.50;;;;;;5099334;28;999;-40
2022/06/26 18:35:49;;;;;;;;;;;29.40;38.70;;;;;;5098504;28;915;-40
2022/06/26 18:38:16;;;;;;;;;;;29.40;39.00;;;;;;5092785;28;1902;-40
2022/06/26 18:40:43;;;;;;;;;;;29.40;38.60;;;;;;5096113;28;939;-40
2022/06/26 18:43:10;;;;;;;;;;;29.40;38.50;;;;;;5099397;28;972;-40
2022/06/26 18:45:39;;;;;;;;;;;29.40;38.70;;;;;;5098936;28;1027;-41
2022/06/26 18:48:05;;;;;;;;;;;29.40;38.70;;;;;;5099646;28;936;-41
2022/06/26 18:50:32;;;;;;;;;;;29.40;38.50;;;;;;5100116;28;1007;-41
2022/06/26 18:52:59;;;;;;;;;;;29.50;38.70;;;;;;5097989;28;988;-41
2022/06/26 18:55:28;;;;;;;;;;;29.40;38.90;;;;;;5096769;28;984;-41
2022/06/26 18:57:55;;;;;;;;;;;29.40;39.00;;;;;;5096272;28;1991;-41
2022/06/26 19:00:21;;;;;;;;;;;29.40;39.10;;;;;;5097218;28;919;-40
2022/06/26 19:02:49;;;;;;;;;;;29.40;39.20;;;;;;5096998;28;920;-41
2022/06/26 19:05:16;;;;;;;;;;;29.40;39.10;;;;;;5097074;28;952;-40
2022/06/26 19:07:43;;;;;;;;;;;29.30;39.00;;;;;;5096725;28;1088;-41
2022/06/26 19:10:10;;;;;;;;;;;29.40;39.00;;;;;;5096875;28;992;-41
2022/06/26 19:15:30;;;;;;;;;;;29.30;38.90;;;;;;5060044;28;1027;-41
2022/06/26 19:18:02;;;;;;;;;;;29.30;39.20;;;;;;5093862;28;1984;-41
2022/06/26 19:20:29;;;;;;;;;;;29.30;39.30;;;;;;5094300;28;949;-40
2022/06/26 19:22:56;;;;;;;;;;;29.20;39.60;;;;;;5095290;28;1009;-40
2022/06/26 19:25:23;;;;;;;;;;;29.20;39.80;;;;;;5096825;28;936;-41
2022/06/26 19:27:50;;;;;;;;;;;29.20;40.00;;;;;;5097864;28;1225;-41
2022/06/26 19:30:18;;;;;;;;;;;29.20;40.10;;;;;;5097995;28;1384;-41
2022/06/26 19:32:45;;;;;;;;;;;29.20;40.20;;;;;;5098338;28;972;-41
2022/06/26 19:35:13;;;;;;;;;;;29.20;40.30;;;;;;5098185;28;991;-41
2022/06/26 19:37:40;;;;;;;;;;;29.20;40.30;;;;;;5098001;28;939;-41
2022/06/26 19:40:07;;;;;;;;;;;29.20;40.20;;;;;;5098637;28;1980;-41
2022/06/26 19:42:35;;;;;;;;;;;29.20;40.40;;;;;;5098044;28;959;-41
2022/06/26 19:45:03;;;;;;;;;;;29.20;40.30;;;;;;5097771;28;1007;-41
2022/06/26 19:47:30;;;;;;;;;;;29.20;40.00;;;;;;5096663;28;1761;-41
2022/06/26 19:52:44;;;;;;;;;;;29.10;39.80;;;;;;5095395;28;897;-41
2022/06/26 19:55:11;;;;;;;;;;;29.10;39.90;;;;;;5096268;28;975;-41
2022/06/26 19:57:38;;;;;;;;;;;29.10;39.80;;;;;;5095795;28;932;-41
2022/06/26 20:00:06;;;;;;;;;;;29.00;40.00;;;;;;5095562;28;1990;-40
2022/06/26 20:02:34;;;;;;;;;;;29.00;40.00;;;;;;5094871;28;980;-41
2022/06/26 20:05:01;;;;;;;;;;;29.10;40.10;;;;;;5096150;28;935;-41
2022/06/26 20:07:28;;;;;;;;;;;29.00;40.30;;;;;;5094684;28;1013;-41
2022/06/26 20:09:56;;;;;;;;;;;29.00;40.30;;;;;;5094335;28;1038;-41
2022/06/26 20:12:23;;;;;;;;;;;29.00;40.50;;;;;;5095929;28;1002;-41
2022/06/26 20:14:49;;;;;;;;;;;29.00;40.60;;;;;;5096009;28;801;-40
2022/06/26 20:17:16;;;;;;;;;;;29.00;40.60;;;;;;5094816;28;985;-40
2022/06/26 20:19:43;;;;;;;;;;;28.90;40.80;;;;;;5094546;28;1967;-39
2022/06/26 20:22:10;;;;;;;;;;;28.90;41.00;;;;;;5094988;28;928;-40
2022/06/26 20:24:37;;;;;;;;;;;28.90;41.10;;;;;;5095186;28;1066;-41
2022/06/26 20:27:05;;;;;;;;;;;28.90;41.40;;;;;;5095209;28;1085;-41
2022/06/26 20:29:32;;;;;;;;;;;28.80;41.60;;;;;;5094147;28;1090;-40
2022/06/26 20:32:00;;;;;;;;;;;28.80;41.70;;;;;;5094732;28;980;-39
2022/06/26 20:34:30;;;;;;;;;;;28.90;41.80;;;;;;5094881;28;933;-40
2022/06/26 20:36:57;;;;;;;;;;;28.90;41.80;;;;;;5094486;28;1193;-40
2022/06/26 20:39:24;;;;;;;;;;;28.80;41.80;;;;;;5094787;28;1959;-39
2022/06/26 20:41:51;;;;;;;;;;;28.80;41.80;;;;;;5094977;28;868;-40
2022/06/26 20:44:18;;;;;;;;;;;28.90;41.80;;;;;;5096440;28;1044;-40
2022/06/26 20:46:45;;;;;;;;;;;28.90;42.10;;;;;;5096795;28;944;-42
2022/06/26 20:49:12;;;;;;;;;;;28.90;41.90;;;;;;5097635;28;944;-42
2022/06/26 20:51:40;;;;;;;;;;;28.80;41.70;;;;;;5097502;28;833;-41
2022/06/26 20:54:07;;;;;;;;;;;28.80;41.90;;;;;;5097771;28;1786;-48
2022/06/26 20:56:34;;;;;;;;;;;28.80;42.60;;;;;;5096848;28;979;-49
2022/06/26 20:59:01;;;;;;;;;;;28.80;42.00;;;;;;5096105;28;1907;-41
2022/06/26 21:01:30;;;;;;;;;;;28.80;42.30;;;;;;5096959;28;947;-41
2022/06/26 21:03:57;;;;;;;;;;;28.80;42.00;;;;;;5097595;28;1015;-41
2022/06/26 21:06:24;;;;;;;;;;;28.80;41.80;;;;;;5095407;28;986;-41
2022/06/26 21:08:51;;;;;;;;;;;28.80;41.90;;;;;;5096065;28;948;-41
2022/06/26 21:11:18;;;;;;;;;;;28.70;41.90;;;;;;5096435;28;979;-41
2022/06/26 21:13:45;;;;;;;;;;;28.70;41.70;;;;;;5095401;28;1002;-41
2022/06/26 21:16:12;;;;;;;;;;;28.70;42.00;;;;;;5096047;28;968;-42
2022/06/26 21:18:40;;;;;;;;;;;28.70;42.00;;;;;;5095036;28;1905;-41
2022/06/26 21:21:07;;;;;;;;;;;28.70;41.80;;;;;;5095947;28;948;-42
2022/06/26 21:23:33;;;;;;;;;;;28.70;41.70;;;;;;5093239;28;1023;-41
2022/06/26 21:26:00;;;;;;;;;;;28.60;41.80;;;;;;5096760;28;1059;-41
2022/06/26 21:28:27;;;;;;;;;;;28.60;42.10;;;;;;5096853;28;912;-41
2022/06/26 21:30:54;;;;;;;;;;;28.50;42.10;;;;;;5097086;28;888;-41
2022/06/26 21:33:23;;;;;;;;;;;28.50;42.30;;;;;;5097409;28;1008;-41
2022/06/26 21:35:51;;;;;;;;;;;28.50;42.30;;;;;;5096602;28;1852;-41
2022/06/26 21:38:18;;;;;;;;;;;28.40;42.40;;;;;;5097626;28;921;-41
2022/06/26 21:40:45;;;;;;;;;;;28.40;42.50;;;;;;5097123;28;1913;-41
2022/06/26 21:43:11;;;;;;;;;;;28.40;42.60;;;;;;5098269;28;1010;-41
2022/06/26 21:45:38;;;;;;;;;;;28.40;42.70;;;;;;5097360;28;972;-41
2022/06/26 21:48:05;;;;;;;;;;;28.30;42.60;;;;;;5097340;28;960;-41
2022/06/26 21:50:32;;;;;;;;;;;28.30;42.60;;;;;;5097325;28;1000;-43
2022/06/26 21:53:00;;;;;;;;;;;28.30;42.70;;;;;;5094902;28;1047;-42
2022/06/26 21:55:27;;;;;;;;;;;28.30;42.90;;;;;;5095709;28;980;-40
2022/06/26 21:57:54;;;;;;;;;;;28.10;43.10;;;;;;5096695;28;991;-45
2022/06/26 22:00:25;;;;;;;;;;;28.10;43.10;;;;;;5096567;28;2183;-42
2022/06/26 22:02:52;;;;;;;;;;;28.20;43.10;;;;;;5095764;28;948;-45
2022/06/26 22:05:19;;;;;;;;;;;28.20;43.10;;;;;;5099080;28;945;-44
2022/06/26 22:07:46;;;;;;;;;;;28.20;43.10;;;;;;5100754;28;1171;-42
2022/06/26 22:10:14;;;;;;;;;;;28.20;43.30;;;;;;5100493;28;968;-43
2022/06/26 22:12:41;;;;;;;;;;;28.30;43.30;;;;;;5100564;28;940;-43
2022/06/26 22:15:08;;;;;;;;;;;28.30;43.20;;;;;;5100668;28;992;-43
2022/06/26 22:17:35;;;;;;;;;;;28.30;43.20;;;;;;5101154;28;1282;-43
2022/06/26 22:20:02;;;;;;;;;;;28.30;43.40;;;;;;5101126;28;1913;-43
2022/06/26 22:22:28;;;;;;;;;;;28.30;43.10;;;;;;5100535;28;972;-42
2022/06/26 22:24:55;;;;;;;;;;;28.50;44.70;;;;;;5100220;28;1022;-43
2022/06/26 22:30:07;;;;;;;;;;;28.50;43.10;;;;;;5100513;28;612;-43
2022/06/26 22:32:34;;;;;;;;;;;28.40;43.10;;;;;;5099817;28;944;-44
2022/06/26 22:35:01;;;;;;;;;;;28.40;43.40;;;;;;5101035;28;935;-43
2022/06/26 22:37:28;;;;;;;;;;;28.40;43.60;;;;;;5100604;28;943;-44
2022/06/26 22:39:56;;;;;;;;;;;28.40;43.60;;;;;;5100724;28;1983;-43
2022/06/26 22:42:24;;;;;;;;;;;28.40;43.60;;;;;;5100100;28;990;-44
2022/06/26 22:44:51;;;;;;;;;;;28.40;43.50;;;;;;5099199;28;944;-44
2022/06/26 22:47:18;;;;;;;;;;;28.40;43.40;;;;;;5100209;28;1000;-44
2022/06/26 22:49:44;;;;;;;;;;;28.40;43.50;;;;;;5100213;28;993;-44
2022/06/26 22:52:11;;;;;;;;;;;28.40;43.50;;;;;;5100507;28;928;-43
2022/06/26 22:54:38;;;;;;;;;;;28.50;44.50;;;;;;5100269;28;1297;-44
2022/06/26 22:57:05;;;;;;;;;;;28.50;43.30;;;;;;5099567;28;984;-44
2022/06/26 22:59:34;;;;;;;;;;;28.50;43.30;;;;;;5100400;28;1898;-44
2022/06/26 23:02:01;;;;;;;;;;;28.50;43.40;;;;;;5100447;28;992;-44
2022/06/26 23:04:28;;;;;;;;;;;28.50;43.50;;;;;;5100900;28;1044;-44
2022/06/26 23:06:54;;;;;;;;;;;28.50;43.40;;;;;;5099046;28;947;-44
2022/06/26 23:09:21;;;;;;;;;;;28.50;44.00;;;;;;5100429;28;972;-43
2022/06/26 23:11:48;;;;;;;;;;;28.50;44.10;;;;;;5099217;28;928;-44
2022/06/26 23:14:15;;;;;;;;;;;28.70;43.60;;;;;;5099340;28;982;-42
2022/06/26 23:16:43;;;;;;;;;;;28.80;43.40;;;;;;5098237;28;1008;-43
2022/06/26 23:19:10;;;;;;;;;;;28.80;43.30;;;;;;5096712;28;1187;-43
2022/06/26 23:21:37;;;;;;;;;;;28.80;43.60;;;;;;5098141;28;1905;-43
2022/06/26 23:24:04;;;;;;;;;;;28.80;43.60;;;;;;5096562;28;997;-43
2022/06/26 23:26:30;;;;;;;;;;;28.80;43.60;;;;;;5097103;28;933;-43
2022/06/26 23:28:57;;;;;;;;;;;28.80;43.40;;;;;;5099571;28;990;-43
2022/06/26 23:31:24;;;;;;;;;;;28.90;43.60;;;;;;5100085;28;932;-43
2022/06/26 23:33:52;;;;;;;;;;;28.90;43.50;;;;;;5100457;28;1038;-43
2022/06/26 23:36:19;;;;;;;;;;;28.90;43.40;;;;;;5099937;28;1008;-43
2022/06/26 23:38:46;;;;;;;;;;;28.90;43.30;;;;;;5099582;28;1007;-42
2022/06/26 23:41:12;;;;;;;;;;;28.90;43.30;;;;;;5100010;28;1902;-43
2022/06/26 23:43:39;;;;;;;;;;;28.90;43.30;;;;;;5100019;28;952;-42
2022/06/26 23:46:06;;;;;;;;;;;28.90;43.30;;;;;;5100810;28;1007;-43
2022/06/26 23:48:33;;;;;;;;;;;29.00;43.40;;;;;;5100183;28;940;-43
2022/06/26 23:51:01;;;;;;;;;;;29.00;43.30;;;;;;5099877;28;944;-43
2022/06/26 23:53:28;;;;;;;;;;;29.00;43.10;;;;;;5099216;28;920;-43
2022/06/26 23:55:55;;;;;;;;;;;29.00;43.10;;;;;;5098681;28;927;-43
2022/06/26 23:58:22;;;;;;;;;;;29.00;43.10;;;;;;5097789;28;1054;-43
